Quiggleville, Pennsylvania
Current Conditions -  °F | °C
As of 3:54 PM on Friday 19 Dec 2014 (Local Time) from KIPT Reporting Station
Overcast Overcast  
Wind Chill: 28°   Ceiling: 3600
Heat Index: 35°   Visibility: 10mi
Dew Point: 20°   Wind: 9mph
Humidity: 54%   Direction: 330°NNW
Pressure: 30.14"   Gusts: 18mph
Location:  41.3181°N, 77.075°W
Report Text: KIPT 192054Z 33008G16KT 10SM OVC036 02/M07 A3014 RMK AO2 SLP210 T00171067 51014
Loading
Personal Weather Stations






























Interactive Weather Map New forecast layout! Learn more

10-Day Weather Forecast

Advertisements
Track Severe Weather on mobile